Mercini Lady — A8DL4 — position and weather

sailwx.info

Track history (hours):
 
Tides and Currents Weather Stations Pressure Air Temp Water Temp Dewpoint Dewpoint Depression Visibility Wind Speed Wind Dir Waves Ship Positions

Mercini Lady

Last reported at 2016-Feb-25 04:18 UTC. Time now 2016-Jun-24 22:20 UTC.
Position N 36°16' E 014°47'.
Warning: this ship's position is months out of date.

Length 182 m; draft 10.7 m.

Type: Tanker. MMSI: 636012102.

Date/timePositionNaut miles runAvg speedWind from/ knotsBaromVisibWave heightAir tempDewpointWater temp
2016-Feb-25 04:18N 36°16' E 014°47'911.5
2016-Feb-25 03:33N 36°18' E 014°36'1211.8
2016-Feb-25 02:33N 36°22' E 014°22'1211.6
2016-Feb-25 01:33N 36°26' E 014°09'2512.1
2016-Feb-24 23:29N 36°34' E 013°39'25211.4
2016-Feb-24 01:28N 38°54' E 009°15'1010.4
2016-Feb-24 00:33N 39°02' E 009°08'5 5.4
2016-Feb-23 23:33N 39°06' E 009°03'0 0.2
2016-Feb-23 22:33N 39°06' E 009°03'1 0.6
2016-Feb-23 21:33N 39°05' E 009°02'0 0.0
2016-Feb-23 20:31N 39°05' E 009°02'0 0.0
2016-Feb-23 19:32N 39°05' E 009°02'0 0.0
2016-Feb-23 18:29N 39°05' E 009°02'0 0.0
2016-Feb-23 17:33N 39°05' E 009°02'0 0.0
2016-Feb-23 16:31N 39°05' E 009°02'0 0.0
2016-Feb-23 15:31N 39°05' E 009°02'0 0.0
2016-Feb-23 14:32N 39°05' E 009°02'0 0.0
2016-Feb-23 13:33N 39°05' E 009°02'0 0.0
2016-Feb-23 12:33N 39°05' E 009°02'0 0.0
2016-Feb-23 11:31N 39°05' E 009°02'0 0.0
2016-Feb-23 10:32N 39°05' E 009°02'0 0.0
2016-Feb-23 09:32N 39°05' E 009°02'0 0.0
2016-Feb-23 08:33N 39°05' E 009°02'0 0.0
2016-Feb-23 07:31N 39°05' E 009°02'0 0.0
2016-Feb-23 06:31N 39°05' E 009°02'0 0.0
2016-Feb-23 05:32N 39°05' E 009°02'0 0.0
2016-Feb-23 04:33N 39°05' E 009°02'0 0.0
2016-Feb-23 03:33N 39°05' E 009°02'0 0.0
2016-Feb-23 02:31N 39°05' E 009°02'0 0.0
2016-Feb-23 01:32N 39°05' E 009°02'0 0.0
2016-Feb-23 00:32N 39°05' E 009°02'0 0.0
2016-Feb-22 23:33N 39°05' E 009°02'0 0.0
2016-Feb-22 22:31N 39°05' E 009°02'0 0.0
2016-Feb-22 21:31N 39°05' E 009°02'0 0.0
2016-Feb-22 20:32N 39°05' E 009°02'0 0.0
2016-Feb-22 19:33N 39°05' E 009°02'0 0.0
2016-Feb-22 18:33N 39°05' E 009°02'0 0.0
2016-Feb-22 17:31N 39°05' E 009°02'0 0.0
2016-Feb-22 16:32N 39°05' E 009°02'0 0.0
2016-Feb-22 15:29N 39°05' E 009°02'0 0.0
2016-Feb-22 14:33N 39°05' E 009°02'0 0.0
2016-Feb-22 13:31N 39°05' E 009°02'0 0.0
2016-Feb-22 12:31N 39°05' E 009°02'0 0.0
2016-Feb-22 11:32N 39°05' E 009°02'0 0.0
2016-Feb-22 10:33N 39°05' E 009°02'0 0.0
2016-Feb-22 09:33N 39°05' E 009°02'0 0.0
2016-Feb-22 08:31N 39°05' E 009°02'0 0.0
2016-Feb-22 07:32N 39°05' E 009°02'0 0.0
2016-Feb-22 06:30N 39°05' E 009°02'0 0.0
2016-Feb-22 05:33N 39°05' E 009°02'0 0.0
2016-Feb-22 04:31N 39°05' E 009°02'0 0.0
2016-Feb-22 03:32N 39°05' E 009°02'0 0.0
2016-Feb-22 02:32N 39°05' E 009°02'0 0.0
2016-Feb-22 01:33N 39°05' E 009°02'0 0.0
2016-Feb-22 00:31N 39°05' E 009°02'0 0.0
2016-Feb-21 23:31N 39°05' E 009°02'0 0.0
2016-Feb-21 22:32N 39°05' E 009°02'0 0.0
2016-Feb-21 21:33N 39°05' E 009°02'0 0.0
2016-Feb-21 20:33N 39°05' E 009°02'0 0.0
2016-Feb-21 19:31N 39°05' E 009°02'1 1.4
2016-Feb-21 18:33N 39°06' E 009°03'4 3.8
2016-Feb-21 17:33N 39°03' E 009°05'0 0.0
2016-Feb-21 16:31N 39°03' E 009°05'0 0.0
2016-Feb-21 15:32N 39°03' E 009°05'0 0.1
2016-Feb-21 14:32N 39°03' E 009°05'0 0.1
2016-Feb-21 13:33N 39°03' E 009°05'0 0.0
2016-Feb-21 12:31N 39°03' E 009°05'0 0.0
2016-Feb-21 11:32N 39°03' E 009°05'0 0.0
2016-Feb-21 10:29N 39°03' E 009°05'0 0.2
2016-Feb-21 09:33N 39°03' E 009°05'0 0.0
2016-Feb-21 08:34N 39°03' E 009°05'0 0.0
2016-Feb-21 07:31N 39°03' E 009°05'0 0.0
2016-Feb-21 06:32N 39°03' E 009°05'0 0.0
2016-Feb-21 05:33N 39°03' E 009°05'0 0.0
2016-Feb-21 04:33N 39°03' E 009°05'0 0.0
2016-Feb-21 03:31N 39°03' E 009°05'0 0.0
2016-Feb-21 02:32N 39°03' E 009°05'0 0.0
2016-Feb-21 01:32N 39°03' E 009°05'0 0.0
2016-Feb-21 00:33N 39°03' E 009°05'0 0.0
2016-Feb-20 23:31N 39°03' E 009°05'0 0.0
2016-Feb-20 22:31N 39°03' E 009°05'0 0.0
2016-Feb-20 21:32N 39°03' E 009°05'0 0.0
2016-Feb-20 20:33N 39°03' E 009°05'0 0.0
2016-Feb-20 19:33N 39°03' E 009°05'0 0.0
2016-Feb-20 18:28N 39°03' E 009°05'0 0.0
2016-Feb-20 17:32N 39°03' E 009°05'0 0.0
2016-Feb-20 16:32N 39°03' E 009°05'0 0.0
2016-Feb-20 15:33N 39°03' E 009°05'0 0.0
2016-Feb-20 14:31N 39°03' E 009°05'0 0.0
2016-Feb-20 13:31N 39°03' E 009°05'0 0.0
2016-Feb-20 12:32N 39°03' E 009°05'0 0.0
2016-Feb-20 11:33N 39°03' E 009°05'0 0.0
2016-Feb-20 10:33N 39°03' E 009°05'0 0.0
2016-Feb-20 09:31N 39°03' E 009°05'0 0.1
2016-Feb-20 08:32N 39°03' E 009°05'0 0.0
2016-Feb-20 07:32N 39°03' E 009°05'0 0.0
2016-Feb-20 06:33N 39°03' E 009°05'0 0.0
2016-Feb-20 05:31N 39°03' E 009°05'0 0.0
2016-Feb-20 04:31N 39°03' E 009°05'0 0.0
2016-Feb-20 03:32N 39°03' E 009°05'6 5.8
2016-Feb-20 02:34N 38°58' E 009°09'1110.9
2016-Feb-20 01:33N 38°49' E 009°17'25711.1
2016-Feb-19 02:24N 36°32' E 013°51'1011.2
2016-Feb-19 01:34N 36°28' E 014°02'1111.3
2016-Feb-19 00:33N 36°24' E 014°15'1110.9
2016-Feb-18 23:33N 36°19' E 014°27'1010.1
2016-Feb-18 22:33N 36°14' E 014°38'  
2016-Feb-16 17:22N 33°20' E 026°15'  
Track history (hours):
 
Tides and Currents Weather Stations Pressure Air Temp Water Temp Dewpoint Dewpoint Depression Visibility Wind Speed Wind Dir Waves Ship Positions

Mercini Lady

Last reported at 2016-Feb-25 04:18 UTC. Time now 2016-Jun-24 22:20 UTC.
Position N 36°16' E 014°47'.
Warning: this ship's position is months out of date.

Length 182 m; draft 10.7 m.

Type: Tanker. MMSI: 636012102.

Date/timePositionNaut miles runAvg speedWind from/ knotsBaromVisibWave heightAir tempDewpointWater temp
2016-Feb-25 04:18N 36°16' E 014°47'911.5
2016-Feb-25 03:33N 36°18' E 014°36'1211.8
2016-Feb-25 02:33N 36°22' E 014°22'1211.6
2016-Feb-25 01:33N 36°26' E 014°09'2512.1
2016-Feb-24 23:29N 36°34' E 013°39'25211.4
2016-Feb-24 01:28N 38°54' E 009°15'1010.4
2016-Feb-24 00:33N 39°02' E 009°08'5 5.4
2016-Feb-23 23:33N 39°06' E 009°03'0 0.2
2016-Feb-23 22:33N 39°06' E 009°03'1 0.6
2016-Feb-23 21:33N 39°05' E 009°02'0 0.0
2016-Feb-23 20:31N 39°05' E 009°02'0 0.0
2016-Feb-23 19:32N 39°05' E 009°02'0 0.0
2016-Feb-23 18:29N 39°05' E 009°02'0 0.0
2016-Feb-23 17:33N 39°05' E 009°02'0 0.0
2016-Feb-23 16:31N 39°05' E 009°02'0 0.0
2016-Feb-23 15:31N 39°05' E 009°02'0 0.0
2016-Feb-23 14:32N 39°05' E 009°02'0 0.0
2016-Feb-23 13:33N 39°05' E 009°02'0 0.0
2016-Feb-23 12:33N 39°05' E 009°02'0 0.0
2016-Feb-23 11:31N 39°05' E 009°02'0 0.0
2016-Feb-23 10:32N 39°05' E 009°02'0 0.0
2016-Feb-23 09:32N 39°05' E 009°02'0 0.0
2016-Feb-23 08:33N 39°05' E 009°02'0 0.0
2016-Feb-23 07:31N 39°05' E 009°02'0 0.0
2016-Feb-23 06:31N 39°05' E 009°02'0 0.0
2016-Feb-23 05:32N 39°05' E 009°02'0 0.0
2016-Feb-23 04:33N 39°05' E 009°02'0 0.0
2016-Feb-23 03:33N 39°05' E 009°02'0 0.0
2016-Feb-23 02:31N 39°05' E 009°02'0 0.0
2016-Feb-23 01:32N 39°05' E 009°02'0 0.0
2016-Feb-23 00:32N 39°05' E 009°02'0 0.0
2016-Feb-22 23:33N 39°05' E 009°02'0 0.0
2016-Feb-22 22:31N 39°05' E 009°02'0 0.0
2016-Feb-22 21:31N 39°05' E 009°02'0 0.0
2016-Feb-22 20:32N 39°05' E 009°02'0 0.0
2016-Feb-22 19:33N 39°05' E 009°02'0 0.0
2016-Feb-22 18:33N 39°05' E 009°02'0 0.0
2016-Feb-22 17:31N 39°05' E 009°02'0 0.0
2016-Feb-22 16:32N 39°05' E 009°02'0 0.0
2016-Feb-22 15:29N 39°05' E 009°02'0 0.0
2016-Feb-22 14:33N 39°05' E 009°02'0 0.0
2016-Feb-22 13:31N 39°05' E 009°02'0 0.0
2016-Feb-22 12:31N 39°05' E 009°02'0 0.0
2016-Feb-22 11:32N 39°05' E 009°02'0 0.0
2016-Feb-22 10:33N 39°05' E 009°02'0 0.0
2016-Feb-22 09:33N 39°05' E 009°02'0 0.0
2016-Feb-22 08:31N 39°05' E 009°02'0 0.0
2016-Feb-22 07:32N 39°05' E 009°02'0 0.0
2016-Feb-22 06:30N 39°05' E 009°02'0 0.0
2016-Feb-22 05:33N 39°05' E 009°02'0 0.0
2016-Feb-22 04:31N 39°05' E 009°02'0 0.0
2016-Feb-22 03:32N 39°05' E 009°02'0 0.0
2016-Feb-22 02:32N 39°05' E 009°02'0 0.0
2016-Feb-22 01:33N 39°05' E 009°02'0 0.0
2016-Feb-22 00:31N 39°05' E 009°02'0 0.0
2016-Feb-21 23:31N 39°05' E 009°02'0 0.0
2016-Feb-21 22:32N 39°05' E 009°02'0 0.0
2016-Feb-21 21:33N 39°05' E 009°02'0 0.0
2016-Feb-21 20:33N 39°05' E 009°02'0 0.0
2016-Feb-21 19:31N 39°05' E 009°02'1 1.4
2016-Feb-21 18:33N 39°06' E 009°03'4 3.8
2016-Feb-21 17:33N 39°03' E 009°05'0 0.0
2016-Feb-21 16:31N 39°03' E 009°05'0 0.0
2016-Feb-21 15:32N 39°03' E 009°05'0 0.1
2016-Feb-21 14:32N 39°03' E 009°05'0 0.1
2016-Feb-21 13:33N 39°03' E 009°05'0 0.0
2016-Feb-21 12:31N 39°03' E 009°05'0 0.0
2016-Feb-21 11:32N 39°03' E 009°05'0 0.0
2016-Feb-21 10:29N 39°03' E 009°05'0 0.2
2016-Feb-21 09:33N 39°03' E 009°05'0 0.0
2016-Feb-21 08:34N 39°03' E 009°05'0 0.0
2016-Feb-21 07:31N 39°03' E 009°05'0 0.0
2016-Feb-21 06:32N 39°03' E 009°05'0 0.0
2016-Feb-21 05:33N 39°03' E 009°05'0 0.0
2016-Feb-21 04:33N 39°03' E 009°05'0 0.0
2016-Feb-21 03:31N 39°03' E 009°05'0 0.0
2016-Feb-21 02:32N 39°03' E 009°05'0 0.0
2016-Feb-21 01:32N 39°03' E 009°05'0 0.0
2016-Feb-21 00:33N 39°03' E 009°05'0 0.0
2016-Feb-20 23:31N 39°03' E 009°05'0 0.0
2016-Feb-20 22:31N 39°03' E 009°05'0 0.0
2016-Feb-20 21:32N 39°03' E 009°05'0 0.0
2016-Feb-20 20:33N 39°03' E 009°05'0 0.0
2016-Feb-20 19:33N 39°03' E 009°05'0 0.0
2016-Feb-20 18:28N 39°03' E 009°05'0 0.0
2016-Feb-20 17:32N 39°03' E 009°05'0 0.0
2016-Feb-20 16:32N 39°03' E 009°05'0 0.0
2016-Feb-20 15:33N 39°03' E 009°05'0 0.0
2016-Feb-20 14:31N 39°03' E 009°05'0 0.0
2016-Feb-20 13:31N 39°03' E 009°05'0 0.0
2016-Feb-20 12:32N 39°03' E 009°05'0 0.0
2016-Feb-20 11:33N 39°03' E 009°05'0 0.0
2016-Feb-20 10:33N 39°03' E 009°05'0 0.0
2016-Feb-20 09:31N 39°03' E 009°05'0 0.1
2016-Feb-20 08:32N 39°03' E 009°05'0 0.0
2016-Feb-20 07:32N 39°03' E 009°05'0 0.0
2016-Feb-20 06:33N 39°03' E 009°05'0 0.0
2016-Feb-20 05:31N 39°03' E 009°05'0 0.0
2016-Feb-20 04:31N 39°03' E 009°05'0 0.0
2016-Feb-20 03:32N 39°03' E 009°05'6 5.8
2016-Feb-20 02:34N 38°58' E 009°09'1110.9
2016-Feb-20 01:33N 38°49' E 009°17'25711.1
2016-Feb-19 02:24N 36°32' E 013°51'1011.2
2016-Feb-19 01:34N 36°28' E 014°02'1111.3
2016-Feb-19 00:33N 36°24' E 014°15'1110.9
2016-Feb-18 23:33N 36°19' E 014°27'1010.1
2016-Feb-18 22:33N 36°14' E 014°38'  
2016-Feb-16 17:22N 33°20' E 026°15'  

Dump ship's entire track history